Texas City — WDD4983 — position and weather

sailwx.info

Track history (hours):
 
Tides and Currents Weather Stations Pressure Air Temp Water Temp Dewpoint Dewpoint Depression Visibility Wind Speed Wind Dir Waves Ship Positions

Texas City

Owner: Marathon Petroleum Company LP, Findlay, OH. More information available from US FCC via Universal Licensing System and Coast Guard Vessel Documentation Center.

Last reported at 2016-Jul-16 11:05 UTC. Time now 2016-Jul-27 01:50 UTC.
Position N 30°03' W 090°41'.
Warning: this ship's position is 10 days out of date.

Length 28 m; draft 3 m.

Type: Tug. MMSI: 367135470.

Date/timePositionNaut miles runAvg speedWind from/ knotsBaromVisibWave heightAir tempDewpointWater temp
2016-Jul-16 11:05N 30°03' W 090°41'  
2016-Jul-08 04:12N 29°56' W 090°13'3 4.6
2016-Jul-08 03:33N 29°57' W 090°10'4 3.7
2016-Jul-08 02:33N 29°55' W 090°06'4 4.4
2016-Jul-08 01:34N 29°57' W 090°02'4 4.3
2016-Jul-08 00:33N 29°55' W 089°58'1 0.5
2016-Jul-07 23:33N 29°55' W 089°59'0 0.0
2016-Jul-07 22:33N 29°55' W 089°59'0 0.0
2016-Jul-07 21:34N 29°55' W 089°59'2 2.0
2016-Jul-07 20:34N 29°53' W 090°00'4 4.0
2016-Jul-07 19:33N 29°50' W 090°03'2 1.8
2016-Jul-07 18:33N 29°48' W 090°04'3 2.8
2016-Jul-07 17:33N 29°46' W 090°05'23 3.9
2016-Jul-07 11:33N 29°33' W 090°28'5 4.6
2016-Jul-07 10:33N 29°34' W 090°34'4 4.0
2016-Jul-07 09:33N 29°35' W 090°38'4 4.1
2016-Jul-07 08:33N 29°37' W 090°42'3 3.4
2016-Jul-07 07:33N 29°34' W 090°44'2 1.7
2016-Jul-07 06:33N 29°32' W 090°46'1 0.7
2016-Jul-07 05:33N 29°32' W 090°46'4 3.5
2016-Jul-07 04:33N 29°32' W 090°50'55 3.6
2016-Jul-06 13:33N 29°50' W 091°50'2 1.6
2016-Jul-06 12:22N 29°51' W 091°52'3 4.1
2016-Jul-06 11:34N 29°51' W 091°56'  
Track history (hours):
 
Tides and Currents Weather Stations Pressure Air Temp Water Temp Dewpoint Dewpoint Depression Visibility Wind Speed Wind Dir Waves Ship Positions

Texas City

Owner: Marathon Petroleum Company LP, Findlay, OH. More information available from US FCC via Universal Licensing System and Coast Guard Vessel Documentation Center.

Last reported at 2016-Jul-16 11:05 UTC. Time now 2016-Jul-27 01:50 UTC.
Position N 30°03' W 090°41'.
Warning: this ship's position is 10 days out of date.

Length 28 m; draft 3 m.

Type: Tug. MMSI: 367135470.

Date/timePositionNaut miles runAvg speedWind from/ knotsBaromVisibWave heightAir tempDewpointWater temp
2016-Jul-16 11:05N 30°03' W 090°41'  
2016-Jul-08 04:12N 29°56' W 090°13'3 4.6
2016-Jul-08 03:33N 29°57' W 090°10'4 3.7
2016-Jul-08 02:33N 29°55' W 090°06'4 4.4
2016-Jul-08 01:34N 29°57' W 090°02'4 4.3
2016-Jul-08 00:33N 29°55' W 089°58'1 0.5
2016-Jul-07 23:33N 29°55' W 089°59'0 0.0
2016-Jul-07 22:33N 29°55' W 089°59'0 0.0
2016-Jul-07 21:34N 29°55' W 089°59'2 2.0
2016-Jul-07 20:34N 29°53' W 090°00'4 4.0
2016-Jul-07 19:33N 29°50' W 090°03'2 1.8
2016-Jul-07 18:33N 29°48' W 090°04'3 2.8
2016-Jul-07 17:33N 29°46' W 090°05'23 3.9
2016-Jul-07 11:33N 29°33' W 090°28'5 4.6
2016-Jul-07 10:33N 29°34' W 090°34'4 4.0
2016-Jul-07 09:33N 29°35' W 090°38'4 4.1
2016-Jul-07 08:33N 29°37' W 090°42'3 3.4
2016-Jul-07 07:33N 29°34' W 090°44'2 1.7
2016-Jul-07 06:33N 29°32' W 090°46'1 0.7
2016-Jul-07 05:33N 29°32' W 090°46'4 3.5
2016-Jul-07 04:33N 29°32' W 090°50'55 3.6
2016-Jul-06 13:33N 29°50' W 091°50'2 1.6
2016-Jul-06 12:22N 29°51' W 091°52'3 4.1
2016-Jul-06 11:34N 29°51' W 091°56'  

Dump ship's entire track history